createdAt,value
2023-04-18T00:00:12.760Z,100402.81
2023-04-18T00:02:41.594Z,100401.44
2023-04-18T00:05:09.311Z,100405.47
2023-04-18T00:07:36.639Z,100409.16
2023-04-18T00:10:05.803Z,100395.94
2023-04-18T00:12:34.544Z,100400.75
2023-04-18T00:15:02.640Z,100395.59
2023-04-18T00:17:34.189Z,100395.38
2023-04-18T00:20:07.234Z,100400.47
2023-04-18T00:22:34.794Z,100397.44
2023-04-18T00:25:02.035Z,100398.44
2023-04-18T00:27:31.094Z,100389.72
2023-04-18T00:29:58.193Z,100393.25
2023-04-18T00:32:25.346Z,100405.00
2023-04-18T00:34:52.414Z,100400.47
2023-04-18T00:37:19.764Z,100401.47
2023-04-18T00:39:48.938Z,100410.38
2023-04-18T00:42:16.527Z,100400.63
2023-04-18T00:44:43.521Z,100407.84
2023-04-18T00:47:10.591Z,100400.81
2023-04-18T00:49:37.934Z,100397.31
2023-04-18T00:52:05.084Z,100405.69
2023-04-18T00:54:32.574Z,100404.00
2023-04-18T00:56:59.984Z,100400.50
2023-04-18T00:59:27.093Z,100413.91
2023-04-18T01:01:54.264Z,100406.22
2023-04-18T01:04:21.645Z,100403.88
2023-04-18T01:06:48.915Z,100396.84
2023-04-18T01:09:16.076Z,100404.91
2023-04-18T01:11:44.929Z,100398.84
2023-04-18T01:14:12.271Z,100390.13
2023-04-18T01:16:40.184Z,100383.47
2023-04-18T01:19:07.383Z,100390.84
2023-04-18T01:21:36.300Z,100390.34
2023-04-18T01:24:16.847Z,100378.63
2023-04-18T01:26:47.776Z,100388.81
2023-04-18T01:29:15.443Z,100389.66
2023-04-18T01:31:42.611Z,100388.81
2023-04-18T01:34:09.897Z,100388.00
2023-04-18T01:36:38.069Z,100389.16
2023-04-18T01:39:05.524Z,100394.53
2023-04-18T01:41:33.196Z,100392.88
2023-04-18T01:44:00.597Z,100390.84
2023-04-18T01:46:28.300Z,100390.84
2023-04-18T01:48:56.093Z,100389.38
2023-04-18T01:51:23.595Z,100391.38
2023-04-18T01:53:50.733Z,100391.53
2023-04-18T01:56:17.797Z,100385.16
2023-04-18T01:58:45.096Z,100390.19
2023-04-18T02:01:13.259Z,100391.19
2023-04-18T02:03:40.633Z,100388.50
2023-04-18T02:06:08.177Z,100387.03
2023-04-18T02:08:36.165Z,100385.16
2023-04-18T02:11:06.235Z,100387.38
2023-04-18T02:13:33.386Z,100375.97
2023-04-18T02:16:00.703Z,100378.31
2023-04-18T02:18:47.788Z,100380.31
2023-04-18T02:21:14.702Z,100377.63
2023-04-18T02:23:41.719Z,100382.16
2023-04-18T02:26:08.843Z,100377.97
2023-04-18T02:28:39.248Z,100367.44
2023-04-18T02:31:07.463Z,100377.16
2023-04-18T02:33:35.212Z,100380.19
2023-04-18T02:36:02.272Z,100376.50
2023-04-18T02:38:29.326Z,100372.13
2023-04-18T02:40:56.383Z,100370.13
2023-04-18T02:43:23.414Z,100379.22
2023-04-18T02:45:50.790Z,100377.00
2023-04-18T02:48:17.967Z,100379.53
2023-04-18T02:50:46.090Z,100383.88
2023-04-18T02:53:13.611Z,100378.31
2023-04-18T02:55:53.401Z,100372.97
2023-04-18T02:58:24.131Z,100374.16
2023-04-18T03:01:28.379Z,100364.44
2023-04-18T03:04:06.903Z,100373.31
2023-04-18T03:06:38.762Z,100369.78
2023-04-18T03:09:07.264Z,100367.44
2023-04-18T03:11:37.480Z,100362.75
2023-04-18T03:14:05.988Z,100367.09
2023-04-18T03:16:44.174Z,100376.66
2023-04-18T03:19:14.944Z,100364.72
2023-04-18T03:21:42.142Z,100370.59
2023-04-18T03:24:12.215Z,100373.41
2023-04-18T03:26:41.020Z,100372.03
2023-04-18T03:29:08.639Z,100374.69
2023-04-18T03:31:35.930Z,100357.22
2023-04-18T03:34:03.007Z,100366.88
2023-04-18T03:36:31.488Z,100370.19
2023-04-18T03:38:59.343Z,100363.47
2023-04-18T03:41:27.250Z,100368.13
2023-04-18T03:43:56.824Z,100366.06
2023-04-18T03:46:24.714Z,100364.00
2023-04-18T03:48:54.384Z,100368.31
2023-04-18T03:51:21.822Z,100375.75
2023-04-18T03:53:48.894Z,100379.84
2023-04-18T03:56:17.464Z,100372.38
2023-04-18T03:58:55.736Z,100379.38
2023-04-18T04:01:23.347Z,100387.38
2023-04-18T04:03:52.412Z,100380.81
2023-04-18T04:06:20.518Z,100383.78
2023-04-18T04:08:47.629Z,100367.84
2023-04-18T04:11:19.440Z,100384.25
2023-04-18T04:13:46.949Z,100380.56
2023-04-18T04:16:16.879Z,100382.56
2023-04-18T04:18:45.233Z,100386.38
2023-04-18T04:21:13.640Z,100384.91
2023-04-18T04:23:46.473Z,100382.22
2023-04-18T04:26:26.350Z,100378.31
2023-04-18T04:29:03.608Z,100379.44
2023-04-18T04:31:32.738Z,100391.50
2023-04-18T04:33:59.832Z,100383.72
2023-04-18T04:36:27.367Z,100377.78
2023-04-18T04:38:59.320Z,100378.81
2023-04-18T04:41:37.713Z,100387.06
2023-04-18T04:44:07.083Z,100393.75
2023-04-18T04:46:39.508Z,100388.38
2023-04-18T04:49:12.731Z,100384.66
2023-04-18T04:51:40.337Z,100383.28
2023-04-18T04:54:07.420Z,100389.13
2023-04-18T04:56:34.825Z,100389.94
2023-04-18T04:59:02.265Z,100389.56
2023-04-18T05:01:36.528Z,100381.50
2023-04-18T05:04:04.113Z,100385.03
2023-04-18T05:06:31.899Z,100379.84
2023-04-18T05:09:01.084Z,100386.22
2023-04-18T05:11:28.473Z,100371.56
2023-04-18T05:13:55.546Z,100386.53
2023-04-18T05:16:22.799Z,100388.00
2023-04-18T05:18:49.969Z,100388.63
2023-04-18T05:21:17.007Z,100387.81
2023-04-18T05:23:44.246Z,100384.84
2023-04-18T05:26:11.326Z,100380.78
2023-04-18T05:28:38.523Z,100387.25
2023-04-18T05:31:05.793Z,100390.59
2023-04-18T05:33:32.930Z,100390.59
2023-04-18T05:36:00.368Z,100387.44
2023-04-18T05:38:27.463Z,100382.44
2023-04-18T05:40:56.017Z,100391.16
2023-04-18T05:43:23.554Z,100390.78
2023-04-18T05:45:52.718Z,100392.06
2023-04-18T05:48:20.178Z,100389.00
2023-04-18T05:50:47.543Z,100387.06
2023-04-18T05:53:14.803Z,100392.34
2023-04-18T05:55:42.100Z,100394.47
2023-04-18T05:58:11.324Z,100388.41
2023-04-18T06:00:38.370Z,100390.16
2023-04-18T06:03:06.287Z,100386.66
2023-04-18T06:05:35.225Z,100385.50
2023-04-18T06:08:02.379Z,100384.28
2023-04-18T06:10:29.811Z,100391.06
2023-04-18T06:12:56.946Z,100388.44
2023-04-18T06:15:24.261Z,100390.50
2023-04-18T06:17:51.501Z,100397.47
2023-04-18T06:20:18.673Z,100397.78
2023-04-18T06:22:45.879Z,100391.91
2023-04-18T06:25:13.002Z,100395.31
2023-04-18T06:27:40.183Z,100399.75
2023-04-18T06:30:08.376Z,100393.34
2023-04-18T06:32:35.791Z,100390.97
2023-04-18T06:35:03.185Z,100387.31
2023-04-18T06:37:32.120Z,100384.09
2023-04-18T06:39:59.229Z,100385.28
2023-04-18T06:42:26.381Z,100377.41
2023-04-18T06:44:54.893Z,100375.81
2023-04-18T06:47:22.871Z,100387.31
2023-04-18T06:49:50.048Z,100385.44
2023-04-18T06:52:17.195Z,100384.13
2023-04-18T06:54:44.212Z,100387.56
2023-04-18T06:57:11.408Z,100383.63
2023-04-18T06:59:38.684Z,100390.28
2023-04-18T07:02:05.755Z,100381.13
2023-04-18T07:04:32.834Z,100384.81
2023-04-18T07:07:01.704Z,100390.00
2023-04-18T07:09:29.056Z,100390.00
2023-04-18T07:11:56.431Z,100380.91
2023-04-18T07:14:24.883Z,100374.19
2023-04-18T07:16:52.441Z,100376.66
2023-04-18T07:19:19.537Z,100378.81
2023-04-18T07:21:46.694Z,100368.38
2023-04-18T07:24:14.124Z,100369.78
2023-04-18T07:26:41.819Z,100377.88
2023-04-18T07:29:08.957Z,100374.97
2023-04-18T07:31:36.332Z,100383.25
2023-04-18T07:34:03.570Z,100376.06
2023-04-18T07:36:31.552Z,100378.31
2023-04-18T07:38:58.637Z,100387.75
2023-04-18T07:41:25.704Z,100380.75
2023-04-18T07:43:52.723Z,100377.84
2023-04-18T07:46:19.904Z,100376.53
2023-04-18T07:48:46.971Z,100383.78
2023-04-18T07:51:13.989Z,100374.16
2023-04-18T07:53:43.936Z,100378.50
2023-04-18T07:56:12.775Z,100372.97
2023-04-18T07:58:40.145Z,100365.66
2023-04-18T08:01:07.908Z,100372.00
2023-04-18T08:03:36.572Z,100365.00
2023-04-18T08:06:03.987Z,100367.19
2023-04-18T08:08:31.426Z,100363.88
2023-04-18T08:10:58.588Z,100369.78
2023-04-18T08:13:25.758Z,100361.56
2023-04-18T08:15:52.840Z,100360.38
2023-04-18T08:18:20.186Z,100360.28
2023-04-18T08:20:47.345Z,100360.78
2023-04-18T08:23:17.192Z,100357.41
2023-04-18T08:25:44.538Z,100361.22
2023-04-18T08:28:13.230Z,100362.81
2023-04-18T08:30:40.347Z,100364.59
2023-04-18T08:33:07.483Z,100363.47
2023-04-18T08:35:35.493Z,100358.34
2023-04-18T08:38:03.010Z,100358.50
2023-04-18T08:40:30.509Z,100359.34
2023-04-18T08:42:58.755Z,100361.56
2023-04-18T08:45:26.514Z,100358.50
2023-04-18T08:47:53.799Z,100361.63
2023-04-18T08:50:21.533Z,100361.41
2023-04-18T08:52:51.349Z,100358.63
2023-04-18T08:55:19.220Z,100359.72
2023-04-18T08:57:47.709Z,100362.06
2023-04-18T09:00:17.762Z,100365.34
2023-04-18T09:02:47.297Z,100367.44
2023-04-18T09:05:16.262Z,100371.22
2023-04-18T09:07:43.532Z,100352.34
2023-04-18T09:10:12.665Z,100360.81
2023-04-18T09:12:53.067Z,100354.66
2023-04-18T09:15:23.809Z,100359.75
2023-04-18T09:17:56.463Z,100368.41
2023-04-18T09:20:35.164Z,100363.28
2023-04-18T09:23:05.133Z,100365.38
2023-04-18T09:25:45.115Z,100361.56
2023-04-18T09:28:30.547Z,100359.94
2023-04-18T09:30:58.505Z,100366.59
2023-04-18T09:33:34.091Z,100367.09
2023-04-18T09:36:17.669Z,100344.66
2023-04-18T09:38:44.829Z,100360.50
2023-04-18T09:41:15.845Z,100363.63
2023-04-18T09:43:44.598Z,100363.16
2023-04-18T09:46:12.735Z,100357.50
2023-04-18T09:48:40.961Z,100353.00
2023-04-18T09:51:10.900Z,100360.47
2023-04-18T09:53:40.090Z,100355.69
2023-04-18T09:56:12.887Z,100360.91
2023-04-18T09:58:42.600Z,100360.69
2023-04-18T10:01:09.776Z,100362.56
2023-04-18T10:03:47.395Z,100366.34
2023-04-18T10:06:17.681Z,100367.59
2023-04-18T10:08:45.833Z,100373.59
2023-04-18T10:11:13.006Z,100371.13
2023-04-18T10:13:43.249Z,100369.69
2023-04-18T10:16:11.756Z,100367.22
2023-04-18T10:18:38.990Z,100372.03
2023-04-18T10:21:06.310Z,100373.47
2023-04-18T10:23:36.215Z,100376.81
2023-04-18T10:26:08.049Z,100365.16
2023-04-18T10:28:57.581Z,100370.94
2023-04-18T10:31:27.236Z,100382.72
2023-04-18T10:34:05.593Z,100382.84
2023-04-18T10:36:34.009Z,100371.13
2023-04-18T10:39:20.014Z,100379.22
2023-04-18T10:41:51.670Z,100374.66
2023-04-18T10:44:22.055Z,100383.69
2023-04-18T10:46:52.377Z,100377.88
2023-04-18T10:49:26.276Z,100377.84
2023-04-18T10:51:58.578Z,100381.41
2023-04-18T10:54:37.861Z,100376.81
2023-04-18T10:57:08.821Z,100379.09
2023-04-18T10:59:39.070Z,100381.63
2023-04-18T11:02:25.960Z,100378.94
2023-04-18T11:04:55.676Z,100377.53
2023-04-18T11:07:42.174Z,100374.47
2023-04-18T11:10:10.152Z,100373.59
2023-04-18T11:12:40.317Z,100374.69
2023-04-18T11:15:17.830Z,100377.91
2023-04-18T11:17:45.200Z,100382.06
2023-04-18T11:20:15.155Z,100376.59
2023-04-18T11:22:48.189Z,100378.50
2023-04-18T11:25:16.828Z,100370.19
2023-04-18T11:27:45.202Z,100376.44
2023-04-18T11:30:13.472Z,100378.09
2023-04-18T11:32:41.447Z,100370.59
2023-04-18T11:35:10.234Z,100379.34
2023-04-18T11:37:39.109Z,100380.16
2023-04-18T11:40:09.514Z,100366.34
2023-04-18T11:42:38.947Z,100369.63
2023-04-18T11:45:24.224Z,100367.03
2023-04-18T11:47:57.296Z,100369.56
2023-04-18T11:50:25.420Z,100359.72
2023-04-18T11:52:54.802Z,100358.91
2023-04-18T11:55:24.943Z,100361.38
2023-04-18T11:57:54.168Z,100361.81
2023-04-18T12:00:38.644Z,100351.59
2023-04-18T12:03:13.354Z,100355.09
2023-04-18T12:05:42.752Z,100353.69
2023-04-18T12:08:12.003Z,100353.44
2023-04-18T12:10:53.549Z,100352.19
2023-04-18T12:13:32.637Z,100354.72
2023-04-18T12:16:02.512Z,100349.34
2023-04-18T12:18:30.050Z,100356.03
2023-04-18T12:20:58.734Z,100344.78
2023-04-18T12:23:34.016Z,100354.16
2023-04-18T12:26:15.274Z,100349.38
2023-04-18T12:28:46.039Z,100347.06
2023-04-18T12:31:13.157Z,100341.28
2023-04-18T12:33:40.511Z,100341.31
2023-04-18T12:36:11.385Z,100341.34
2023-04-18T12:38:38.642Z,100339.88
2023-04-18T12:41:05.878Z,100337.38
2023-04-18T12:43:33.207Z,100330.75
2023-04-18T12:46:00.425Z,100336.16
2023-04-18T12:48:27.574Z,100333.22
2023-04-18T12:50:54.534Z,100335.31
2023-04-18T12:53:21.757Z,100331.59
2023-04-18T12:55:48.955Z,100330.56
2023-04-18T12:58:18.813Z,100333.50
2023-04-18T13:00:46.339Z,100329.53
2023-04-18T13:03:13.768Z,100329.06
2023-04-18T13:05:41.333Z,100326.16
2023-04-18T13:08:17.183Z,100327.78
2023-04-18T13:10:48.706Z,100330.13
2023-04-18T13:13:16.195Z,100328.69
2023-04-18T13:15:43.458Z,100323.44
2023-04-18T13:18:10.487Z,100334.53
2023-04-18T13:20:37.674Z,100332.00
2023-04-18T13:23:05.328Z,100326.59
2023-04-18T13:25:32.592Z,100328.69
2023-04-18T13:28:01.042Z,100319.97
2023-04-18T13:30:29.265Z,100326.41
2023-04-18T13:32:56.901Z,100331.19
2023-04-18T13:35:24.470Z,100325.38
2023-04-18T13:37:51.666Z,100320.38
2023-04-18T13:40:18.743Z,100323.09
2023-04-18T13:42:45.831Z,100328.66
2023-04-18T13:45:12.882Z,100319.06
2023-04-18T13:47:40.055Z,100311.31
2023-04-18T13:50:08.193Z,100321.06
2023-04-18T13:52:35.442Z,100324.97
2023-04-18T13:55:02.412Z,100319.72
2023-04-18T13:57:32.396Z,100317.16
2023-04-18T13:59:59.548Z,100321.69
2023-04-18T14:02:26.905Z,100319.78
2023-04-18T14:04:55.015Z,100321.94
2023-04-18T14:07:22.169Z,100322.34
2023-04-18T14:09:49.331Z,100321.88
2023-04-18T14:12:16.410Z,100324.56
2023-04-18T14:14:43.384Z,100322.28
2023-04-18T14:17:10.450Z,100319.31
2023-04-18T14:19:37.545Z,100320.41
2023-04-18T14:22:04.552Z,100320.19
2023-04-18T14:24:31.626Z,100321.44
2023-04-18T14:26:58.714Z,100323.09
2023-04-18T14:29:25.834Z,100319.44
2023-04-18T14:31:52.880Z,100326.69
2023-04-18T14:34:19.930Z,100315.22
2023-04-18T14:36:47.023Z,100315.78
2023-04-18T14:39:14.442Z,100311.63
2023-04-18T14:56:43.780Z,100327.50
2023-04-18T14:59:15.559Z,100327.66
2023-04-18T15:01:43.853Z,100334.50
2023-04-18T15:04:11.080Z,100326.19
2023-04-18T15:06:38.702Z,100325.19
2023-04-18T15:09:06.753Z,100323.31
2023-04-18T15:11:34.053Z,100329.94
2023-04-18T15:14:01.376Z,100326.19
2023-04-18T15:16:28.930Z,100332.13
2023-04-18T15:18:56.044Z,100324.88
2023-04-18T15:21:23.171Z,100328.00
2023-04-18T15:23:50.616Z,100333.84
2023-04-18T15:26:17.839Z,100332.34
2023-04-18T15:28:45.506Z,100325.69
2023-04-18T15:31:12.933Z,100325.44
2023-04-18T15:33:40.279Z,100327.53
2023-04-18T15:36:07.557Z,100325.97
2023-04-18T15:38:34.964Z,100329.44
2023-04-18T15:41:02.234Z,100332.16
2023-04-18T15:43:29.341Z,100328.41
2023-04-18T15:45:56.457Z,100332.00
2023-04-18T15:48:23.706Z,100328.75
2023-04-18T15:50:52.199Z,100332.53
2023-04-18T15:53:19.475Z,100342.38
2023-04-18T15:55:49.392Z,100333.69
2023-04-18T15:58:16.578Z,100329.06
2023-04-18T16:00:44.427Z,100329.06
2023-04-18T16:03:12.347Z,100332.00
2023-04-18T16:05:39.695Z,100336.56
2023-04-18T16:08:08.943Z,100334.69
2023-04-18T16:10:37.035Z,100335.34
2023-04-18T16:13:04.552Z,100328.28
2023-04-18T16:15:32.048Z,100339.06
2023-04-18T16:17:59.135Z,100339.63
2023-04-18T16:20:27.483Z,100340.66
2023-04-18T16:22:54.670Z,100346.81
2023-04-18T16:25:21.825Z,100332.69
2023-04-18T16:27:48.859Z,100339.38
2023-04-18T16:30:16.241Z,100349.28
2023-04-18T16:32:43.941Z,100344.50
2023-04-18T16:35:11.253Z,100344.69
2023-04-18T16:37:39.961Z,100349.41
2023-04-18T16:40:10.248Z,100344.78
2023-04-18T16:42:37.539Z,100343.28
2023-04-18T16:45:04.922Z,100357.22
2023-04-18T16:47:35.036Z,100356.31
2023-04-18T16:50:02.271Z,100356.84
2023-04-18T16:52:31.455Z,100361.13
2023-04-18T16:54:58.515Z,100367.84
2023-04-18T16:57:25.783Z,100362.16
2023-04-18T16:59:52.913Z,100369.59
2023-04-18T17:02:20.176Z,100367.28
2023-04-18T17:04:47.693Z,100363.28
2023-04-18T17:07:14.947Z,100365.16
2023-04-18T17:09:42.161Z,100368.31
2023-04-18T17:12:09.223Z,100366.38
2023-04-18T17:14:37.287Z,100367.78
2023-04-18T17:17:04.535Z,100363.78
2023-04-18T17:19:31.948Z,100366.28
2023-04-18T17:21:59.028Z,100373.63
2023-04-18T17:24:26.428Z,100370.19
2023-04-18T17:26:53.481Z,100371.88
2023-04-18T17:29:23.069Z,100380.69
2023-04-18T17:31:51.380Z,100374.28
2023-04-18T17:34:18.582Z,100375.94
2023-04-18T17:36:45.807Z,100373.81
2023-04-18T17:39:13.506Z,100372.97
2023-04-18T17:41:40.804Z,100380.03
2023-04-18T17:44:08.612Z,100375.03
2023-04-18T17:46:36.212Z,100380.03
2023-04-18T17:49:04.478Z,100373.34
2023-04-18T17:51:31.710Z,100378.75
2023-04-18T17:53:58.841Z,100372.88
2023-04-18T17:56:27.059Z,100388.91
2023-04-18T17:58:56.567Z,100378.16
2023-04-18T18:01:24.966Z,100386.22
2023-04-18T18:03:54.065Z,100388.47
2023-04-18T18:06:21.799Z,100376.78
2023-04-18T18:08:48.954Z,100381.78
2023-04-18T18:11:16.421Z,100383.34
2023-04-18T18:13:43.852Z,100384.19
2023-04-18T18:16:11.168Z,100387.72
2023-04-18T18:18:39.042Z,100373.63
2023-04-18T18:21:06.146Z,100381.88
2023-04-18T18:23:33.402Z,100383.06
2023-04-18T18:26:01.868Z,100369.63
2023-04-18T18:28:29.075Z,100377.69
2023-04-18T18:30:56.229Z,100380.75
2023-04-18T18:33:24.178Z,100380.28
2023-04-18T18:35:51.414Z,100376.84
2023-04-18T18:38:18.679Z,100388.44
2023-04-18T18:40:46.264Z,100387.88
2023-04-18T18:43:13.529Z,100383.25
2023-04-18T18:45:40.943Z,100380.56
2023-04-18T18:48:08.876Z,100372.56
2023-04-18T18:50:36.183Z,100371.72
2023-04-18T18:53:03.268Z,100376.00
2023-04-18T18:55:30.423Z,100382.31
2023-04-18T18:57:57.624Z,100371.19
2023-04-18T19:00:25.013Z,100378.22
2023-04-18T19:02:52.291Z,100382.09
2023-04-18T19:05:19.702Z,100381.63
2023-04-18T19:07:46.798Z,100382.66
2023-04-18T19:10:13.848Z,100372.09
2023-04-18T19:12:40.891Z,100378.50
2023-04-18T19:15:08.722Z,100384.41
2023-04-18T19:17:35.985Z,100386.44
2023-04-18T19:20:03.665Z,100373.66
2023-04-18T19:22:32.409Z,100375.59
2023-04-18T19:25:00.837Z,100370.31
2023-04-18T19:27:28.077Z,100369.50
2023-04-18T19:29:55.316Z,100376.16
2023-04-18T19:32:22.519Z,100362.63
2023-04-18T19:34:51.213Z,100371.53
2023-04-18T19:37:18.378Z,100370.69
2023-04-18T19:39:45.493Z,100375.06
2023-04-18T19:42:12.564Z,100374.06
2023-04-18T19:44:39.662Z,100373.03
2023-04-18T19:47:06.813Z,100377.22
2023-04-18T19:49:33.956Z,100364.81
2023-04-18T19:52:01.187Z,100379.09
2023-04-18T19:54:28.344Z,100368.22
2023-04-18T19:56:55.474Z,100380.44
2023-04-18T19:59:22.541Z,100364.88
2023-04-18T20:01:49.872Z,100370.72
2023-04-18T20:04:17.144Z,100375.94
2023-04-18T20:06:44.692Z,100376.75
2023-04-18T20:09:16.842Z,100377.13
2023-04-18T20:11:44.231Z,100379.59
2023-04-18T20:14:11.225Z,100378.97
2023-04-18T20:16:39.197Z,100378.31
2023-04-18T20:19:06.347Z,100381.72
2023-04-18T20:21:33.427Z,100380.53
2023-04-18T20:24:00.700Z,100377.38
2023-04-18T20:26:27.871Z,100385.59
2023-04-18T20:28:54.987Z,100378.91
2023-04-18T20:31:22.094Z,100389.31
2023-04-18T20:33:49.303Z,100381.91
2023-04-18T20:36:17.856Z,100387.09
2023-04-18T20:38:45.056Z,100380.59
2023-04-18T20:41:15.121Z,100381.25
2023-04-18T20:43:43.294Z,100374.63
2023-04-18T20:46:13.248Z,100388.22
2023-04-18T20:48:40.659Z,100372.97
2023-04-18T20:51:07.656Z,100391.09
2023-04-18T20:53:34.685Z,100382.69
2023-04-18T20:56:03.132Z,100382.31
2023-04-18T20:58:30.476Z,100383.72
2023-04-18T21:00:57.537Z,100383.34
2023-04-18T21:03:25.068Z,100384.91
2023-04-18T21:05:52.793Z,100378.69
2023-04-18T21:08:19.940Z,100389.44
2023-04-18T21:10:47.026Z,100393.78
2023-04-18T21:13:14.165Z,100401.84
2023-04-18T21:15:42.346Z,100393.94
2023-04-18T21:18:09.884Z,100390.97
2023-04-18T21:20:37.324Z,100400.03
2023-04-18T21:23:04.443Z,100401.72
2023-04-18T21:25:31.467Z,100408.59
2023-04-18T21:27:58.620Z,100400.25
2023-04-18T21:30:25.897Z,100404.75
2023-04-18T21:32:53.206Z,100411.63
2023-04-18T21:35:22.638Z,100399.56
2023-04-18T21:37:51.375Z,100402.59
2023-04-18T21:40:18.582Z,100405.13
2023-04-18T21:42:46.194Z,100398.91
2023-04-18T21:45:13.866Z,100404.66
2023-04-18T21:47:41.175Z,100412.75
2023-04-18T21:50:09.213Z,100419.97
2023-04-18T21:52:37.129Z,100414.13
2023-04-18T21:55:05.132Z,100412.25
2023-04-18T21:57:33.266Z,100407.25
2023-04-18T22:00:00.345Z,100417.50
2023-04-18T22:02:27.876Z,100416.66
2023-04-18T22:04:55.695Z,100419.19
2023-04-18T22:07:24.741Z,100424.22
2023-04-18T22:09:52.023Z,100405.84
2023-04-18T22:12:19.367Z,100427.56
2023-04-18T22:14:48.581Z,100427.91
2023-04-18T22:17:16.008Z,100421.72
2023-04-18T22:19:44.674Z,100425.59
2023-04-18T22:22:12.249Z,100425.25
2023-04-18T22:24:39.698Z,100418.06
2023-04-18T22:27:07.252Z,100415.75
2023-04-18T22:29:34.464Z,100416.25
2023-04-18T22:32:01.703Z,100408.75
2023-04-18T22:34:28.889Z,100417.63
2023-04-18T22:36:55.978Z,100412.25
2023-04-18T22:39:23.047Z,100401.88
2023-04-18T22:41:50.327Z,100409.56
2023-04-18T22:44:17.550Z,100409.56
2023-04-18T22:46:45.702Z,100407.59
2023-04-18T22:49:12.884Z,100412.59
2023-04-18T22:51:40.163Z,100394.19
2023-04-18T22:54:07.516Z,100387.84
2023-04-18T22:56:34.770Z,100380.09
2023-04-18T22:59:01.819Z,100399.22
2023-04-18T23:01:28.924Z,100402.22
2023-04-18T23:03:56.308Z,100401.88
2023-04-18T23:06:23.880Z,100390.19
2023-04-18T23:08:51.081Z,100401.88
2023-04-18T23:11:18.275Z,100391.84
2023-04-18T23:13:45.479Z,100390.50
2023-04-18T23:16:12.629Z,100399.22
2023-04-18T23:18:39.818Z,100395.84
2023-04-18T23:21:17.506Z,100393.22
2023-04-18T23:23:44.951Z,100386.50
2023-04-18T23:26:16.394Z,100377.69
2023-04-18T23:28:43.775Z,100410.00
2023-04-18T23:31:11.339Z,100402.59
2023-04-18T23:33:38.585Z,100401.28
2023-04-18T23:36:06.690Z,100394.59
2023-04-18T23:38:34.135Z,100393.28
2023-04-18T23:41:01.560Z,100376.84
2023-04-18T23:43:29.244Z,100367.97
2023-04-18T23:45:56.849Z,100378.53
2023-04-18T23:52:51.775Z,100364.00
2023-04-18T23:55:19.351Z,100370.72
2023-04-18T23:57:46.449Z,100400.69
